Time;durP1;ratioP1;P1;durP2;ratioP2;P2;SDS_P1;SDS_P2;PMS_P1;PMS_P2;Temp;Humidity;BMP_temperature;BMP_pressure;BME280_temperature;BME280_humidity;BME280_pressure;Samples;Min_cycle;Max_cycle;Signal;HPM_P1;HPM_P2
2023/12/06 00:01:06;;;;;;;92.75;30.42;;;;;;;;;;5093386;28;20379;-69
2023/12/06 00:03:32;;;;;;;86.00;28.63;;;;;;;;;;5093623;28;20051;-68
2023/12/06 00:05:58;;;;;;;92.20;33.90;;;;;;;;;;5094670;28;20058;-68
2023/12/06 00:08:24;;;;;;;91.93;32.40;;;;;;;;;;5092976;28;20051;-69
2023/12/06 00:10:50;;;;;;;89.35;31.00;;;;;;;;;;5094110;28;20052;-68
2023/12/06 00:13:16;;;;;;;86.10;31.35;;;;;;;;;;5093265;28;20039;-70
2023/12/06 00:15:42;;;;;;;88.00;29.35;;;;;;;;;;5093756;28;20089;-68
2023/12/06 00:18:08;;;;;;;90.22;30.10;;;;;;;;;;5093780;28;20056;-69
2023/12/06 00:20:34;;;;;;;99.32;37.30;;;;;;;;;;5093765;28;20054;-68
2023/12/06 00:23:00;;;;;;;94.80;32.83;;;;;;;;;;5109234;28;20047;-68
2023/12/06 00:25:27;;;;;;;95.75;31.45;;;;;;;;;;5093704;28;20044;-68
2023/12/06 00:27:53;;;;;;;91.78;31.58;;;;;;;;;;5093552;28;20501;-67
2023/12/06 00:30:19;;;;;;;88.40;31.67;;;;;;;;;;5092655;28;20079;-69
2023/12/06 00:32:45;;;;;;;84.72;28.52;;;;;;;;;;5093538;28;20036;-69
2023/12/06 00:35:11;;;;;;;85.57;29.67;;;;;;;;;;5092329;28;20487;-69
2023/12/06 00:37:37;;;;;;;75.47;24.80;;;;;;;;;;5092826;28;20040;-68
2023/12/06 00:40:03;;;;;;;84.38;30.75;;;;;;;;;;5093490;28;20078;-69
2023/12/06 00:42:30;;;;;;;86.13;27.23;;;;;;;;;;5093433;28;20133;-69
2023/12/06 00:44:56;;;;;;;96.97;35.45;;;;;;;;;;5093363;28;20105;-68
2023/12/06 00:47:22;;;;;;;95.07;32.92;;;;;;;;;;5093520;28;20074;-70
2023/12/06 00:49:48;;;;;;;85.53;28.55;;;;;;;;;;5093610;28;20062;-67
2023/12/06 00:52:14;;;;;;;85.63;29.20;;;;;;;;;;5093408;28;20083;-69
2023/12/06 00:54:40;;;;;;;94.20;35.35;;;;;;;;;;5093567;28;20051;-68
2023/12/06 00:57:06;;;;;;;95.65;35.28;;;;;;;;;;5092456;28;20373;-69
2023/12/06 00:59:32;;;;;;;84.82;30.00;;;;;;;;;;5093464;28;20055;-68
2023/12/06 01:01:59;;;;;;;84.43;30.52;;;;;;;;;;5094162;28;20063;-69
2023/12/06 01:04:25;;;;;;;89.70;30.73;;;;;;;;;;5092430;28;20074;-68
2023/12/06 01:06:51;;;;;;;82.60;28.25;;;;;;;;;;5093572;28;20044;-68
2023/12/06 01:09:17;;;;;;;79.20;27.17;;;;;;;;;;5093291;28;20127;-68
2023/12/06 01:11:43;;;;;;;84.85;28.45;;;;;;;;;;5092366;28;20056;-69
2023/12/06 01:14:09;;;;;;;92.88;33.97;;;;;;;;;;5126015;28;20052;-69
2023/12/06 01:16:35;;;;;;;83.97;29.27;;;;;;;;;;5092132;28;20044;-69
2023/12/06 01:19:02;;;;;;;83.88;28.98;;;;;;;;;;5093528;28;20123;-68
2023/12/06 01:21:28;;;;;;;89.95;30.13;;;;;;;;;;5093920;28;20040;-69
2023/12/06 01:23:55;;;;;;;83.30;27.27;;;;;;;;;;5093209;28;20044;-68
2023/12/06 01:26:21;;;;;;;82.07;27.87;;;;;;;;;;5093431;28;20048;-70
2023/12/06 01:28:47;;;;;;;87.82;28.48;;;;;;;;;;5093476;28;20286;-68
2023/12/06 01:31:13;;;;;;;85.35;27.77;;;;;;;;;;5093065;28;20086;-68
2023/12/06 01:33:39;;;;;;;90.07;29.08;;;;;;;;;;5091979;28;20101;-68
2023/12/06 01:36:05;;;;;;;90.63;28.65;;;;;;;;;;5130394;27;20048;-69
2023/12/06 01:38:31;;;;;;;87.30;29.05;;;;;;;;;;5095997;28;20131;-69
2023/12/06 01:40:58;;;;;;;81.97;28.38;;;;;;;;;;5097082;28;20396;-68
2023/12/06 01:43:24;;;;;;;84.97;28.27;;;;;;;;;;5096738;28;20048;-69
2023/12/06 01:45:50;;;;;;;90.85;29.30;;;;;;;;;;5096849;28;20165;-68
2023/12/06 01:48:17;;;;;;;91.25;31.13;;;;;;;;;;5097099;28;20112;-69
2023/12/06 01:50:43;;;;;;;87.60;29.15;;;;;;;;;;5096741;28;20048;-69
2023/12/06 01:53:10;;;;;;;100.93;32.58;;;;;;;;;;5096581;28;20044;-69
2023/12/06 01:55:36;;;;;;;87.00;26.60;;;;;;;;;;5096637;28;20047;-69
2023/12/06 01:58:03;;;;;;;91.88;28.08;;;;;;;;;;5129714;27;20055;-69
2023/12/06 02:00:29;;;;;;;92.18;28.50;;;;;;;;;;5095301;28;20485;-69
2023/12/06 02:02:55;;;;;;;89.53;27.20;;;;;;;;;;5096245;28;20044;-68
2023/12/06 02:05:21;;;;;;;90.05;27.80;;;;;;;;;;5096413;28;20052;-68
2023/12/06 02:07:49;;;;;;;89.10;27.30;;;;;;;;;;5096689;28;20051;-69
2023/12/06 02:10:16;;;;;;;84.35;26.95;;;;;;;;;;5079251;28;20101;-69
2023/12/06 02:12:42;;;;;;;78.32;25.33;;;;;;;;;;5096210;28;20047;-69
2023/12/06 02:15:08;;;;;;;81.57;26.33;;;;;;;;;;5094943;28;20051;-69
2023/12/06 02:17:35;;;;;;;91.43;27.58;;;;;;;;;;5096240;28;20040;-69
2023/12/06 02:20:02;;;;;;;89.97;26.90;;;;;;;;;;5095373;28;20071;-69
2023/12/06 02:22:28;;;;;;;84.63;27.55;;;;;;;;;;5096076;28;20109;-70
2023/12/06 02:24:57;;;;;;;83.60;27.77;;;;;;;;;;5096062;28;20102;-69
2023/12/06 02:27:23;;;;;;;85.97;28.13;;;;;;;;;;5096002;28;20044;-70
2023/12/06 02:29:50;;;;;;;86.15;26.70;;;;;;;;;;5095676;28;20044;-68
2023/12/06 02:32:16;;;;;;;72.38;23.60;;;;;;;;;;5095890;28;20036;-69
2023/12/06 02:34:43;;;;;;;72.60;23.45;;;;;;;;;;5095734;28;20052;-69
2023/12/06 02:37:11;;;;;;;70.60;23.90;;;;;;;;;;5094849;28;20048;-69
2023/12/06 02:39:39;;;;;;;73.53;24.25;;;;;;;;;;5094682;28;20097;-69
2023/12/06 02:42:05;;;;;;;79.30;25.92;;;;;;;;;;5095709;28;20055;-69
2023/12/06 02:44:32;;;;;;;79.97;25.47;;;;;;;;;;5096176;28;20109;-69
2023/12/06 02:46:58;;;;;;;83.68;24.92;;;;;;;;;;5128465;27;20052;-67
2023/12/06 02:49:26;;;;;;;72.10;26.10;;;;;;;;;;5095818;28;20064;-69
2023/12/06 02:51:52;;;;;;;75.70;24.38;;;;;;;;;;5095528;28;20135;-69
2023/12/06 02:54:18;;;;;;;85.63;27.58;;;;;;;;;;5096153;28;20099;-69
2023/12/06 02:56:44;;;;;;;76.65;25.33;;;;;;;;;;5128562;27;20051;-70
2023/12/06 02:59:10;;;;;;;76.78;25.52;;;;;;;;;;5094351;28;20044;-69
2023/12/06 03:01:36;;;;;;;81.13;25.73;;;;;;;;;;5094205;28;20044;-69
2023/12/06 03:04:02;;;;;;;76.78;26.00;;;;;;;;;;5094062;28;20040;-68
2023/12/06 03:06:28;;;;;;;75.95;25.02;;;;;;;;;;5094288;28;20044;-69
2023/12/06 03:08:54;;;;;;;73.03;22.65;;;;;;;;;;5094207;28;20044;-69
2023/12/06 03:11:21;;;;;;;75.93;25.60;;;;;;;;;;5095002;28;20119;-69
2023/12/06 03:13:47;;;;;;;74.88;25.23;;;;;;;;;;5111072;28;20384;-69
2023/12/06 03:16:13;;;;;;;80.38;26.00;;;;;;;;;;5095006;28;20123;-68
2023/12/06 03:18:39;;;;;;;74.63;24.58;;;;;;;;;;5094942;28;20048;-69
2023/12/06 03:21:05;;;;;;;75.97;24.40;;;;;;;;;;5094670;28;20101;-69
2023/12/06 03:23:31;;;;;;;69.60;24.55;;;;;;;;;;5127857;27;20044;-69
2023/12/06 03:25:57;;;;;;;79.43;25.70;;;;;;;;;;5094863;28;20079;-70
2023/12/06 03:28:23;;;;;;;76.90;24.98;;;;;;;;;;5093823;28;20410;-69
2023/12/06 03:30:49;;;;;;;78.10;25.40;;;;;;;;;;5094758;28;20051;-70
2023/12/06 03:33:15;;;;;;;76.47;24.25;;;;;;;;;;5095369;28;20036;-69
2023/12/06 03:35:41;;;;;;;83.13;28.05;;;;;;;;;;5095437;28;20070;-69
2023/12/06 03:38:08;;;;;;;75.25;25.38;;;;;;;;;;5093988;28;20044;-69
2023/12/06 03:40:34;;;;;;;72.03;25.00;;;;;;;;;;5094647;28;20052;-70
2023/12/06 03:43:00;;;;;;;69.20;24.58;;;;;;;;;;5076273;28;20079;-70
2023/12/06 03:45:26;;;;;;;67.50;24.13;;;;;;;;;;5095203;28;20040;-69
2023/12/06 03:47:52;;;;;;;70.43;24.88;;;;;;;;;;5093315;28;20044;-69
2023/12/06 03:50:18;;;;;;;67.43;23.05;;;;;;;;;;5093428;28;20509;-70
2023/12/06 03:52:44;;;;;;;75.35;23.65;;;;;;;;;;5094379;28;20040;-70
2023/12/06 03:55:11;;;;;;;67.97;23.73;;;;;;;;;;5094270;28;20407;-68
2023/12/06 03:57:37;;;;;;;61.45;23.10;;;;;;;;;;5093491;28;20091;-71
2023/12/06 04:00:04;;;;;;;63.85;23.02;;;;;;;;;;5093227;28;20051;-71
2023/12/06 04:02:30;;;;;;;68.07;23.25;;;;;;;;;;5092858;28;20054;-70
2023/12/06 04:04:56;;;;;;;66.50;23.33;;;;;;;;;;5092924;28;20139;-71
2023/12/06 04:07:22;;;;;;;64.63;23.42;;;;;;;;;;5094083;28;20099;-71
2023/12/06 04:09:48;;;;;;;65.47;24.45;;;;;;;;;;5094102;28;20043;-70
2023/12/06 04:12:15;;;;;;;68.95;22.27;;;;;;;;;;5092746;28;20373;-70
2023/12/06 04:14:41;;;;;;;61.70;22.30;;;;;;;;;;5093078;28;20055;-70
2023/12/06 04:17:07;;;;;;;64.10;22.35;;;;;;;;;;5092791;28;20127;-70
2023/12/06 04:19:33;;;;;;;67.40;23.43;;;;;;;;;;5092614;28;20472;-70
2023/12/06 04:21:59;;;;;;;60.80;20.70;;;;;;;;;;5093817;28;20108;-70
2023/12/06 04:24:26;;;;;;;57.47;22.52;;;;;;;;;;5127373;27;20088;-70
2023/12/06 04:26:52;;;;;;;65.93;23.23;;;;;;;;;;5093076;28;20426;-69
2023/12/06 04:29:18;;;;;;;60.15;20.65;;;;;;;;;;5093695;28;20051;-72
2023/12/06 04:31:44;;;;;;;57.92;19.92;;;;;;;;;;5094471;28;20384;-70
2023/12/06 04:34:10;;;;;;;64.57;22.67;;;;;;;;;;5093641;28;20047;-67
2023/12/06 04:36:36;;;;;;;64.68;23.20;;;;;;;;;;5093646;28;20043;-70
2023/12/06 04:39:03;;;;;;;64.65;22.42;;;;;;;;;;5092400;28;20043;-71
2023/12/06 04:41:29;;;;;;;58.13;22.00;;;;;;;;;;5092293;28;20087;-71
2023/12/06 04:43:55;;;;;;;60.03;22.02;;;;;;;;;;5093533;28;20127;-71
2023/12/06 04:46:21;;;;;;;56.92;19.88;;;;;;;;;;5092171;28;20040;-70
2023/12/06 04:48:47;;;;;;;60.83;23.75;;;;;;;;;;5091976;28;20500;-70
2023/12/06 04:51:13;;;;;;;55.90;20.92;;;;;;;;;;5093509;28;20044;-68
2023/12/06 04:53:39;;;;;;;59.33;22.33;;;;;;;;;;5093489;28;20040;-70
2023/12/06 04:56:05;;;;;;;58.47;22.92;;;;;;;;;;5093538;28;20044;-71
2023/12/06 04:58:31;;;;;;;56.80;21.83;;;;;;;;;;5092592;28;20044;-72
2023/12/06 05:00:57;;;;;;;57.30;22.27;;;;;;;;;;5093473;28;20044;-71
2023/12/06 05:03:24;;;;;;;57.30;20.50;;;;;;;;;;5093658;28;20040;-70
2023/12/06 05:05:50;;;;;;;48.53;18.30;;;;;;;;;;5093510;28;20505;-70
2023/12/06 05:08:16;;;;;;;50.22;20.27;;;;;;;;;;5094410;28;20044;-68
2023/12/06 05:10:42;;;;;;;57.80;22.50;;;;;;;;;;5097699;28;20052;-70
2023/12/06 05:13:09;;;;;;;57.30;21.55;;;;;;;;;;5097985;28;20048;-70
2023/12/06 05:15:35;;;;;;;64.15;23.20;;;;;;;;;;5096544;28;20070;-70
2023/12/06 05:18:02;;;;;;;55.13;21.20;;;;;;;;;;5097715;28;20464;-70
2023/12/06 05:20:28;;;;;;;66.28;24.02;;;;;;;;;;5097478;28;20080;-69
2023/12/06 05:22:54;;;;;;;57.97;21.88;;;;;;;;;;5097982;28;20056;-69
2023/12/06 05:25:20;;;;;;;54.88;21.50;;;;;;;;;;5096567;28;20087;-69
2023/12/06 05:27:46;;;;;;;60.63;24.92;;;;;;;;;;5097836;28;20047;-70
2023/12/06 05:30:13;;;;;;;51.65;20.48;;;;;;;;;;5097066;28;20097;-70
2023/12/06 05:32:39;;;;;;;57.78;22.25;;;;;;;;;;5097297;28;20344;-69
2023/12/06 05:35:05;;;;;;;53.80;20.20;;;;;;;;;;5096418;28;20066;-69
2023/12/06 05:37:31;;;;;;;53.80;19.73;;;;;;;;;;5097680;28;20395;-70
2023/12/06 05:39:58;;;;;;;54.75;21.95;;;;;;;;;;5095766;28;20130;-70
2023/12/06 05:42:24;;;;;;;54.92;21.88;;;;;;;;;;5078959;28;20084;-69
2023/12/06 05:44:50;;;;;;;63.25;23.25;;;;;;;;;;5096679;28;20089;-69
2023/12/06 05:47:16;;;;;;;60.75;22.83;;;;;;;;;;5097124;28;20384;-69
2023/12/06 05:49:43;;;;;;;64.82;23.98;;;;;;;;;;5094930;28;20055;-71
2023/12/06 05:52:09;;;;;;;57.00;22.23;;;;;;;;;;5097281;28;20396;-69
2023/12/06 05:54:35;;;;;;;52.58;20.25;;;;;;;;;;5096466;28;20048;-70
2023/12/06 05:57:01;;;;;;;58.55;21.20;;;;;;;;;;5095336;28;20076;-70
2023/12/06 05:59:27;;;;;;;50.65;20.05;;;;;;;;;;5095320;28;20051;-69
2023/12/06 06:01:53;;;;;;;56.08;20.65;;;;;;;;;;5096369;28;20044;-70
2023/12/06 06:04:19;;;;;;;54.15;20.63;;;;;;;;;;5096186;28;20495;-71
2023/12/06 06:06:45;;;;;;;54.42;19.50;;;;;;;;;;5095895;28;20044;-71
2023/12/06 06:09:11;;;;;;;53.58;21.15;;;;;;;;;;5096170;28;20129;-70
2023/12/06 06:11:38;;;;;;;55.42;20.05;;;;;;;;;;5095833;28;20040;-70
2023/12/06 06:14:04;;;;;;;49.70;20.58;;;;;;;;;;5096950;28;20047;-70
2023/12/06 06:16:30;;;;;;;56.90;21.20;;;;;;;;;;5095939;28;20048;-69
2023/12/06 06:18:57;;;;;;;56.08;21.55;;;;;;;;;;5096721;28;20193;-70
2023/12/06 06:21:23;;;;;;;54.92;20.45;;;;;;;;;;5095025;28;20040;-69
2023/12/06 06:23:49;;;;;;;57.45;20.55;;;;;;;;;;5095761;28;20040;-70
2023/12/06 06:26:15;;;;;;;55.05;21.58;;;;;;;;;;5095777;28;20063;-69
2023/12/06 06:28:41;;;;;;;51.70;20.08;;;;;;;;;;5095414;28;20123;-69
2023/12/06 06:31:08;;;;;;;54.10;19.58;;;;;;;;;;5096261;28;20043;-70
2023/12/06 06:33:34;;;;;;;57.08;20.70;;;;;;;;;;5095687;28;20048;-70
2023/12/06 06:36:00;;;;;;;53.20;20.70;;;;;;;;;;5129006;27;20047;-69
2023/12/06 06:38:26;;;;;;;54.95;20.10;;;;;;;;;;5095582;28;20040;-70
2023/12/06 06:40:52;;;;;;;48.22;20.52;;;;;;;;;;5095587;28;20055;-71
2023/12/06 06:43:18;;;;;;;51.47;20.27;;;;;;;;;;5094102;28;20070;-71
2023/12/06 06:45:44;;;;;;;52.30;21.25;;;;;;;;;;5095392;28;20093;-71
2023/12/06 06:48:11;;;;;;;55.60;20.80;;;;;;;;;;5094132;28;20095;-71
2023/12/06 06:50:37;;;;;;;49.45;19.30;;;;;;;;;;5094127;28;20055;-69
2023/12/06 06:53:03;;;;;;;49.97;19.08;;;;;;;;;;5095246;28;20040;-71
2023/12/06 06:55:29;;;;;;;52.38;19.65;;;;;;;;;;5095562;28;20083;-68
2023/12/06 06:57:56;;;;;;;52.38;20.45;;;;;;;;;;5094187;28;20533;-69
2023/12/06 07:00:22;;;;;;;50.47;19.70;;;;;;;;;;5094796;28;20503;-70
2023/12/06 07:02:49;;;;;;;48.22;19.45;;;;;;;;;;5094942;28;20133;-70
2023/12/06 07:05:15;;;;;;;54.63;20.38;;;;;;;;;;5095100;28;20074;-71
2023/12/06 07:07:41;;;;;;;50.80;19.33;;;;;;;;;;5095403;28;20048;-71
2023/12/06 07:10:09;;;;;;;48.92;18.98;;;;;;;;;;5095011;28;20166;-71
2023/12/06 07:12:36;;;;;;;59.40;22.02;;;;;;;;;;5093858;28;20116;-69
2023/12/06 07:15:02;;;;;;;45.43;18.60;;;;;;;;;;5094936;28;20048;-70
2023/12/06 07:17:29;;;;;;;53.90;19.88;;;;;;;;;;5094698;28;20323;-70
2023/12/06 07:19:55;;;;;;;;;;;;;;;;;;5094052;28;20052;-70
2023/12/06 07:22:22;;;;;;;47.08;17.85;;;;;;;;;;5093368;28;20268;-69
2023/12/06 07:24:48;;;;;;;48.90;19.17;;;;;;;;;;5093305;28;20036;-70
2023/12/06 07:27:14;;;;;;;50.60;19.52;;;;;;;;;;5095063;28;20055;-70
2023/12/06 07:29:42;;;;;;;50.85;19.52;;;;;;;;;;5094424;28;20357;-69
2023/12/06 07:32:09;;;;;;;47.45;18.42;;;;;;;;;;5094954;28;20127;-70
2023/12/06 07:34:35;;;;;;;47.53;18.98;;;;;;;;;;5094304;28;20040;-70
2023/12/06 07:37:01;;;;;;;45.20;19.05;;;;;;;;;;5094282;28;20044;-70
2023/12/06 07:39:27;;;;;;;45.40;18.85;;;;;;;;;;5095048;28;20123;-70
2023/12/06 07:41:53;;;;;;;46.22;18.08;;;;;;;;;;5094156;28;20043;-69
2023/12/06 07:44:20;;;;;;;45.65;18.38;;;;;;;;;;5092956;28;20094;-70
2023/12/06 07:46:48;;;;;;;;;;;;;;;;;;5094469;28;20082;-70
2023/12/06 07:49:14;;;;;;;44.05;16.95;;;;;;;;;;5093566;28;19929;-70
2023/12/06 07:51:40;;;;;;;49.17;18.98;;;;;;;;;;5093866;28;20113;-69
2023/12/06 07:54:06;;;;;;;45.95;18.33;;;;;;;;;;5094323;28;20388;-69
2023/12/06 07:56:33;;;;;;;46.15;17.80;;;;;;;;;;5094786;28;20147;-70
2023/12/06 07:59:00;;;;;;;39.72;16.95;;;;;;;;;;5094626;28;20416;-70
2023/12/06 08:01:31;;;;;;;44.53;18.08;;;;;;;;;;5093922;28;20130;-71
2023/12/06 08:03:57;;;;;;;43.08;17.95;;;;;;;;;;5092851;28;20044;-70
2023/12/06 08:06:23;;;;;;;42.90;17.97;;;;;;;;;;5094638;28;20052;-69
2023/12/06 08:08:53;;;;;;;45.28;17.88;;;;;;;;;;5093563;28;20769;-70
2023/12/06 08:11:19;;;;;;;45.22;17.90;;;;;;;;;;5093563;28;20056;-69
2023/12/06 08:13:47;;;;;;;45.63;18.10;;;;;;;;;;5093697;28;20048;-69
2023/12/06 08:16:13;;;;;;;46.38;18.08;;;;;;;;;;5094168;28;20096;-70
2023/12/06 08:18:39;;;;;;;41.20;17.10;;;;;;;;;;5094276;28;20213;-69
2023/12/06 08:21:08;;;;;;;43.95;17.90;;;;;;;;;;5093661;28;20083;-71
2023/12/06 08:23:34;;;;;;;40.22;17.00;;;;;;;;;;5093708;28;20495;-71
2023/12/06 08:26:00;;;;;;;42.95;19.13;;;;;;;;;;5093522;28;20044;-71
2023/12/06 08:28:26;;;;;;;41.28;18.38;;;;;;;;;;5093235;28;20574;-70
2023/12/06 08:30:52;;;;;;;40.92;17.40;;;;;;;;;;5093119;28;20506;-69
2023/12/06 08:33:19;;;;;;;47.00;17.65;;;;;;;;;;5093714;28;20158;-70
2023/12/06 08:35:45;;;;;;;40.47;17.50;;;;;;;;;;5093879;28;20039;-69
2023/12/06 08:38:12;;;;;;;42.33;18.50;;;;;;;;;;5093493;28;20282;-70
2023/12/06 08:40:38;;;;;;;42.30;17.45;;;;;;;;;;5093643;28;20472;-70
2023/12/06 08:43:04;;;;;;;40.65;17.08;;;;;;;;;;5075176;28;20407;-71
2023/12/06 08:45:33;;;;;;;41.17;17.38;;;;;;;;;;5093255;28;20040;-70
2023/12/06 08:47:59;;;;;;;38.63;16.35;;;;;;;;;;5092971;28;20048;-70
2023/12/06 08:50:26;;;;;;;44.13;17.92;;;;;;;;;;5093433;28;20135;-70
2023/12/06 08:52:52;;;;;;;38.95;17.30;;;;;;;;;;5093232;28;20048;-70
2023/12/06 08:55:18;;;;;;;42.60;16.75;;;;;;;;;;5093495;28;20054;-70
2023/12/06 08:57:44;;;;;;;42.92;18.23;;;;;;;;;;5093108;28;20040;-68
2023/12/06 09:00:12;;;;;;;36.22;15.60;;;;;;;;;;5092905;28;20496;-71
2023/12/06 09:02:39;;;;;;;37.72;16.27;;;;;;;;;;5093820;28;20380;-70
2023/12/06 09:05:06;;;;;;;35.80;15.48;;;;;;;;;;5093040;28;20036;-70
2023/12/06 09:07:32;;;;;;;40.33;16.30;;;;;;;;;;5093132;28;20511;-69
2023/12/06 09:09:58;;;;;;;37.15;15.48;;;;;;;;;;5093031;28;20048;-70
2023/12/06 09:12:24;;;;;;;33.67;15.15;;;;;;;;;;5091847;28;20133;-70
2023/12/06 09:14:50;;;;;;;42.08;16.27;;;;;;;;;;5091639;28;20052;-69
2023/12/06 09:17:16;;;;;;;38.95;15.88;;;;;;;;;;5093536;28;20386;-70
2023/12/06 09:19:42;;;;;;;40.45;15.40;;;;;;;;;;5093017;28;20055;-70
2023/12/06 09:22:08;;;;;;;41.55;14.80;;;;;;;;;;5093341;28;20096;-69
2023/12/06 09:24:34;;;;;;;36.58;15.52;;;;;;;;;;5093435;28;20117;-70
2023/12/06 09:27:00;;;;;;;37.65;15.65;;;;;;;;;;5093311;28;20132;-70
2023/12/06 09:29:26;;;;;;;36.33;15.45;;;;;;;;;;5091735;28;20414;-70
2023/12/06 09:31:52;;;;;;;38.90;15.82;;;;;;;;;;5092779;28;20048;-70
2023/12/06 09:34:18;;;;;;;38.90;16.83;;;;;;;;;;5091873;28;20055;-70
2023/12/06 09:36:44;;;;;;;38.55;16.15;;;;;;;;;;5091731;28;20052;-70
2023/12/06 09:39:15;;;;;;;34.38;15.07;;;;;;;;;;5091919;28;20379;-69
2023/12/06 09:41:44;;;;;;;40.70;14.95;;;;;;;;;;5093481;28;20220;-69
2023/12/06 09:44:10;;;;;;;35.15;15.75;;;;;;;;;;5092811;28;20040;-69
2023/12/06 09:46:36;;;;;;;39.35;15.95;;;;;;;;;;5092774;28;20431;-70
2023/12/06 09:49:03;;;;;;;34.58;15.30;;;;;;;;;;5092462;28;20060;-68
2023/12/06 09:51:29;;;;;;;35.53;15.25;;;;;;;;;;5092642;28;20071;-69
2023/12/06 09:53:55;;;;;;;36.88;16.33;;;;;;;;;;5092447;28;20040;-68
2023/12/06 09:56:23;;;;;;;33.08;15.07;;;;;;;;;;5095328;28;20127;-69
2023/12/06 09:58:49;;;;;;;32.38;15.60;;;;;;;;;;5096856;28;20071;-69
2023/12/06 10:01:15;;;;;;;34.90;15.63;;;;;;;;;;5095390;28;20080;-68
2023/12/06 10:03:41;;;;;;;37.10;15.30;;;;;;;;;;5095061;28;20403;-69
2023/12/06 10:06:08;;;;;;;35.83;15.13;;;;;;;;;;5095462;28;20426;-69
2023/12/06 10:08:34;;;;;;;31.92;15.27;;;;;;;;;;5096503;28;20047;-70
2023/12/06 10:11:01;;;;;;;34.53;14.43;;;;;;;;;;5094707;28;20048;-68
2023/12/06 10:13:34;;;;;;;32.20;15.35;;;;;;;;;;5096252;28;20475;-69
2023/12/06 10:16:00;;;;;;;34.22;15.27;;;;;;;;;;5094748;28;20087;-69
2023/12/06 10:18:26;;;;;;;34.97;15.47;;;;;;;;;;5095957;28;20147;-69
2023/12/06 10:20:52;;;;;;;34.40;14.55;;;;;;;;;;5094569;28;20134;-69
2023/12/06 10:23:18;;;;;;;34.63;15.15;;;;;;;;;;5095847;28;20048;-69
2023/12/06 10:25:47;;;;;;;37.58;15.40;;;;;;;;;;5094507;28;20083;-69
2023/12/06 10:28:13;;;;;;;31.45;14.70;;;;;;;;;;5094389;28;20044;-69
2023/12/06 10:30:39;;;;;;;35.65;15.60;;;;;;;;;;5095866;28;20044;-69
2023/12/06 10:33:06;;;;;;;35.95;14.25;;;;;;;;;;5095255;28;20059;-70
2023/12/06 10:35:35;;;;;;;32.83;13.75;;;;;;;;;;5095658;28;20062;-69
2023/12/06 10:38:03;;;;;;;32.83;15.15;;;;;;;;;;5111292;28;20369;-68
2023/12/06 10:40:29;;;;;;;;;;;;;;;;;;5096226;28;20434;-69
2023/12/06 10:43:01;;;;;;;30.17;13.35;;;;;;;;;;5095761;28;19920;-69
2023/12/06 10:45:27;;;;;;;33.42;14.40;;;;;;;;;;5095607;28;20054;-69
2023/12/06 10:47:55;;;;;;;31.75;13.43;;;;;;;;;;5129242;27;20146;-69
2023/12/06 10:50:22;;;;;;;32.15;14.10;;;;;;;;;;5095599;28;20127;-70
2023/12/06 10:52:48;;;;;;;32.10;13.93;;;;;;;;;;5095416;28;20051;-69
2023/12/06 10:55:17;;;;;;;34.13;13.40;;;;;;;;;;5095327;28;20087;-69
2023/12/06 10:57:43;;;;;;;29.33;13.38;;;;;;;;;;5095341;28;20069;-69
2023/12/06 11:00:11;;;;;;;30.30;13.20;;;;;;;;;;5095204;28;20399;-69
2023/12/06 11:02:38;;;;;;;31.35;12.95;;;;;;;;;;5095207;28;20036;-69
2023/12/06 11:05:05;;;;;;;30.08;13.75;;;;;;;;;;5095546;28;20048;-68
2023/12/06 11:07:31;;;;;;;;;;;;;;;;;;5094853;28;20043;-69
2023/12/06 11:10:14;;;;;;;30.52;12.30;;;;;;;;;;5093839;28;19972;-69
2023/12/06 11:13:19;;;;;;;32.45;13.75;;;;;;;;;;5095540;28;20059;-70
2023/12/06 11:15:54;;;;;;;29.90;13.27;;;;;;;;;;5052529;28;20048;-70
2023/12/06 11:18:21;;;;;;;29.00;12.50;;;;;;;;;;5053083;28;20049;-70
2023/12/06 11:20:47;;;;;;;31.13;12.55;;;;;;;;;;5075511;28;20102;-70
2023/12/06 11:23:16;;;;;;;27.95;12.48;;;;;;;;;;5093966;28;20499;-70
2023/12/06 11:25:43;;;;;;;29.38;13.27;;;;;;;;;;5095412;28;20051;-70
2023/12/06 11:28:17;;;;;;;27.90;13.38;;;;;;;;;;5093736;28;20074;-69
2023/12/06 11:30:49;;;;;;;31.33;13.63;;;;;;;;;;5094609;28;20051;-69
2023/12/06 11:33:15;;;;;;;31.92;13.45;;;;;;;;;;5093715;28;20475;-69
2023/12/06 11:35:45;;;;;;;30.73;13.63;;;;;;;;;;5094585;28;20044;-70
2023/12/06 11:38:11;;;;;;;27.58;13.10;;;;;;;;;;5093700;28;20472;-69
2023/12/06 11:40:38;;;;;;;31.23;14.30;;;;;;;;;;5094750;28;20051;-70
2023/12/06 11:43:05;;;;;;;29.48;13.18;;;;;;;;;;5094503;28;20048;-70
2023/12/06 11:45:32;;;;;;;31.67;13.05;;;;;;;;;;5094463;28;20052;-70
2023/12/06 11:48:08;;;;;;;28.63;13.38;;;;;;;;;;5094444;28;20559;-71
2023/12/06 11:50:47;;;;;;;30.52;12.63;;;;;;;;;;5094739;28;20404;-70
2023/12/06 11:53:13;;;;;;;27.80;13.65;;;;;;;;;;5094340;28;20040;-70
2023/12/06 11:55:42;;;;;;;33.50;13.63;;;;;;;;;;5094198;28;20058;-70
2023/12/06 11:58:09;;;;;;;29.92;12.88;;;;;;;;;;5093003;28;20101;-69
2023/12/06 12:00:38;;;;;;;34.58;13.63;;;;;;;;;;5093281;28;20101;-71
2023/12/06 12:03:05;;;;;;;32.80;13.38;;;;;;;;;;5127189;27;20051;-70
2023/12/06 12:05:31;;;;;;;29.30;13.48;;;;;;;;;;5093952;28;20518;-70
2023/12/06 12:08:00;;;;;;;26.20;12.60;;;;;;;;;;5094065;28;20052;-70
2023/12/06 12:10:27;;;;;;;33.95;13.70;;;;;;;;;;5093876;28;20055;-71
2023/12/06 12:12:53;;;;;;;28.55;14.65;;;;;;;;;;5093983;28;20048;-71
2023/12/06 12:15:20;;;;;;;31.88;14.10;;;;;;;;;;5093425;28;20449;-70
2023/12/06 12:17:46;;;;;;;32.08;12.13;;;;;;;;;;5126870;27;20044;-71
2023/12/06 12:20:13;;;;;;;27.10;12.03;;;;;;;;;;5093938;28;20040;-68
2023/12/06 12:22:49;;;;;;;30.58;12.95;;;;;;;;;;5093686;28;20444;-69
2023/12/06 12:25:16;;;;;;;28.98;13.02;;;;;;;;;;5093700;28;20055;-69
2023/12/06 12:27:45;;;;;;;29.85;12.30;;;;;;;;;;5093660;28;20047;-70
2023/12/06 12:30:12;;;;;;;23.00;11.50;;;;;;;;;;5093580;28;20048;-69
2023/12/06 12:32:43;;;;;;;24.98;12.10;;;;;;;;;;5093595;28;20055;-69
2023/12/06 12:35:10;;;;;;;26.08;11.30;;;;;;;;;;5093506;28;20048;-70
2023/12/06 12:37:36;;;;;;;26.80;12.17;;;;;;;;;;5093513;28;20055;-70
2023/12/06 12:40:03;;;;;;;24.47;11.80;;;;;;;;;;5093398;28;20285;-70
2023/12/06 12:42:29;;;;;;;26.02;11.60;;;;;;;;;;5093260;28;20048;-69
2023/12/06 12:44:55;;;;;;;24.92;10.13;;;;;;;;;;5093272;28;20040;-69
2023/12/06 12:47:21;;;;;;;26.25;10.88;;;;;;;;;;5093222;28;20044;-69
2023/12/06 12:49:48;;;;;;;27.38;11.55;;;;;;;;;;5092791;28;20098;-70
2023/12/06 12:52:15;;;;;;;;;;;;;;;;;;5092348;28;20484;-68
2023/12/06 12:54:41;;;;;;;26.05;10.90;;;;;;;;;;5093277;28;20278;-69
2023/12/06 12:57:07;;;;;;;25.88;11.20;;;;;;;;;;5093916;28;20044;-70
2023/12/06 12:59:36;;;;;;;23.25;10.77;;;;;;;;;;5093008;28;20044;-69
2023/12/06 13:02:03;;;;;;;24.33;10.90;;;;;;;;;;5093176;28;20059;-69
2023/12/06 13:04:29;;;;;;;;;;;;;;;;;;5093378;28;20135;-69
2023/12/06 13:06:55;;;;;;;25.35;10.52;;;;;;;;;;5093108;28;20377;-69
2023/12/06 13:09:21;;;;;;;22.88;10.32;;;;;;;;;;5091982;28;20042;-69
2023/12/06 13:11:48;;;;;;;21.48;9.85;;;;;;;;;;5093168;28;20048;-69
2023/12/06 13:14:15;;;;;;;25.13;10.48;;;;;;;;;;5093074;28;20040;-69
2023/12/06 13:16:42;;;;;;;22.15;10.00;;;;;;;;;;5092971;28;20055;-70
2023/12/06 13:19:08;;;;;;;22.20;10.32;;;;;;;;;;5093080;28;20395;-70
2023/12/06 13:21:34;;;;;;;19.10;9.93;;;;;;;;;;5075724;28;20059;-69
2023/12/06 13:24:00;;;;;;;22.55;10.05;;;;;;;;;;5091961;28;20044;-69
2023/12/06 13:26:26;;;;;;;20.60;8.87;;;;;;;;;;5093256;28;20446;-69
2023/12/06 13:28:52;;;;;;;20.60;8.95;;;;;;;;;;5093551;28;20271;-69
2023/12/06 13:31:19;;;;;;;18.75;8.35;;;;;;;;;;5096151;28;20460;-69
2023/12/06 13:33:45;;;;;;;18.50;8.93;;;;;;;;;;5096817;28;20044;-69
2023/12/06 13:36:11;;;;;;;21.88;9.35;;;;;;;;;;5095647;28;20054;-69
2023/12/06 13:38:37;;;;;;;19.45;9.32;;;;;;;;;;5097544;28;20043;-69
2023/12/06 13:41:03;;;;;;;21.75;9.65;;;;;;;;;;5096738;28;20048;-69
2023/12/06 13:43:29;;;;;;;19.55;9.23;;;;;;;;;;5095162;28;20500;-69
2023/12/06 13:45:55;;;;;;;19.20;9.55;;;;;;;;;;5096125;28;20040;-69
2023/12/06 13:48:21;;;;;;;19.08;9.07;;;;;;;;;;5096148;28;20101;-69
2023/12/06 13:50:48;;;;;;;20.15;9.40;;;;;;;;;;5096572;28;20094;-69
2023/12/06 13:53:14;;;;;;;22.83;10.52;;;;;;;;;;5095405;28;20044;-70
2023/12/06 13:55:40;;;;;;;23.63;9.75;;;;;;;;;;5078437;28;20173;-69
2023/12/06 13:58:06;;;;;;;19.90;9.57;;;;;;;;;;5095265;28;20105;-69
2023/12/06 14:00:32;;;;;;;24.10;9.88;;;;;;;;;;5096537;28;20445;-69
2023/12/06 14:02:58;;;;;;;23.40;10.23;;;;;;;;;;5095105;28;20052;-68
2023/12/06 14:05:24;;;;;;;21.77;10.02;;;;;;;;;;5096313;28;20396;-68
2023/12/06 14:07:50;;;;;;;22.58;9.90;;;;;;;;;;5096989;28;20365;-69
2023/12/06 14:10:16;;;;;;;21.33;9.43;;;;;;;;;;5096163;28;20055;-70
2023/12/06 14:12:42;;;;;;;21.73;10.00;;;;;;;;;;5096661;28;20063;-69
2023/12/06 14:15:09;;;;;;;22.88;10.20;;;;;;;;;;5096674;28;20047;-69